createdAt,value
2022-08-20T00:00:39.366Z,20.1
2022-08-20T00:01:45.507Z,19.79
2022-08-20T00:02:51.642Z,19.79
2022-08-20T00:03:57.795Z,19.79
2022-08-20T00:05:03.934Z,19.79
2022-08-20T00:06:10.076Z,19.79
2022-08-20T00:07:16.220Z,19.79
2022-08-20T00:08:21.370Z,19.79
2022-08-20T00:09:27.529Z,19.2
2022-08-20T00:10:33.662Z,20
2022-08-20T00:11:39.806Z,20
2022-08-20T00:12:45.946Z,20
2022-08-20T00:13:52.088Z,20
2022-08-20T00:14:58.244Z,20.1
2022-08-20T00:16:04.385Z,20
2022-08-20T00:17:10.524Z,20
2022-08-20T00:18:16.676Z,20
2022-08-20T00:19:22.826Z,20.6
2022-08-20T00:20:28.956Z,20.29
2022-08-20T00:21:35.118Z,20.6
2022-08-20T00:22:40.268Z,20.6
2022-08-20T00:23:46.404Z,20.6
2022-08-20T00:24:52.543Z,20.6
2022-08-20T00:25:58.694Z,20.6
2022-08-20T00:27:04.832Z,20.6
2022-08-20T00:28:10.978Z,20.6
2022-08-20T00:29:17.124Z,20.6
2022-08-20T00:30:23.262Z,20.6
2022-08-20T00:31:29.408Z,20.6
2022-08-20T00:32:35.550Z,20.6
2022-08-20T00:33:41.699Z,20.6
2022-08-20T00:34:47.844Z,20.6
2022-08-20T00:35:53.995Z,20.6
2022-08-20T00:36:59.155Z,20.6
2022-08-20T00:38:05.293Z,20.6
2022-08-20T00:39:11.433Z,20.6
2022-08-20T00:40:17.580Z,20.6
2022-08-20T00:41:23.715Z,20.6
2022-08-20T00:42:29.873Z,20.6
2022-08-20T00:43:36.006Z,20.6
2022-08-20T00:44:42.155Z,20.6
2022-08-20T00:45:48.306Z,20.6
2022-08-20T00:46:54.437Z,20.6
2022-08-20T00:48:00.586Z,20.6
2022-08-20T00:49:06.736Z,20.6
2022-08-20T00:50:12.874Z,20.9
2022-08-20T00:51:18.030Z,20.9
2022-08-20T00:52:24.169Z,20.9
2022-08-20T00:53:30.324Z,20.9
2022-08-20T00:54:36.469Z,20.9
2022-08-20T00:55:42.621Z,20.9
2022-08-20T00:56:48.765Z,20.9
2022-08-20T00:57:54.921Z,20.9
2022-08-20T00:59:01.067Z,21.6
2022-08-20T01:00:07.206Z,22.1
2022-08-20T01:01:13.365Z,21.8
2022-08-20T01:02:19.524Z,21.8
2022-08-20T01:03:25.675Z,21.8
2022-08-20T01:04:31.829Z,21.8
2022-08-20T01:05:36.996Z,23
2022-08-20T01:06:43.148Z,23
2022-08-20T01:07:49.300Z,23.1
2022-08-20T01:08:55.452Z,23.4
2022-08-20T01:10:01.612Z,23.7
2022-08-20T01:11:07.750Z,23
2022-08-20T01:12:13.900Z,23.7
2022-08-20T01:13:20.053Z,23.9
2022-08-20T01:14:26.190Z,23.7
2022-08-20T01:15:32.367Z,23.7
2022-08-20T01:16:38.493Z,24.3
2022-08-20T01:17:44.645Z,24.1
2022-08-20T01:18:50.784Z,24.4
2022-08-20T01:19:55.956Z,24.9
2022-08-20T01:21:02.103Z,24.8
2022-08-20T01:22:08.253Z,25.2
2022-08-20T01:23:14.404Z,24.7
2022-08-20T01:24:20.554Z,27.6
2022-08-20T01:25:26.718Z,25.4
2022-08-20T01:26:32.865Z,25.7
2022-08-20T01:27:39.016Z,26.4
2022-08-20T01:28:45.166Z,25.7
2022-08-20T01:29:51.323Z,24.9
2022-08-20T01:30:57.484Z,26.7
2022-08-20T01:32:03.615Z,26.1
2022-08-20T01:33:09.754Z,26.7
2022-08-20T01:34:14.935Z,26.6
2022-08-20T01:35:21.074Z,27.6
2022-08-20T01:36:27.234Z,26
2022-08-20T01:37:33.392Z,26.4
2022-08-20T01:38:39.544Z,26.4
2022-08-20T01:39:45.701Z,26.9
2022-08-20T01:40:51.862Z,26.8
2022-08-20T01:41:58.012Z,27.8
2022-08-20T01:43:04.166Z,26.9
2022-08-20T01:44:10.331Z,27.9
2022-08-20T01:45:16.477Z,28.7
2022-08-20T01:46:22.629Z,28
2022-08-20T01:47:28.828Z,28.4
2022-08-20T01:48:33.947Z,29.1
2022-08-20T01:49:40.098Z,29.2
2022-08-20T01:50:46.261Z,28.1
2022-08-20T01:51:52.407Z,28.9
2022-08-20T01:52:58.556Z,30.1
2022-08-20T01:54:04.700Z,29.5
2022-08-20T01:55:10.845Z,31.1
2022-08-20T01:56:16.995Z,29.6
2022-08-20T01:57:23.147Z,30.3
2022-08-20T01:58:29.292Z,30.5
2022-08-20T01:59:35.440Z,30.1
2022-08-20T02:00:41.595Z,31.1
2022-08-20T02:01:47.755Z,30.8
2022-08-20T02:02:52.920Z,30.7
2022-08-20T02:03:59.078Z,31.4
2022-08-20T02:05:05.226Z,31.1
2022-08-20T02:06:11.369Z,32.8
2022-08-20T02:07:17.522Z,31.7
2022-08-20T02:08:23.671Z,32
2022-08-20T02:09:28.849Z,32
2022-08-20T02:10:35.004Z,32
2022-08-20T02:11:41.163Z,32.4
2022-08-20T02:12:47.319Z,33.8
2022-08-20T02:13:53.458Z,32.9
2022-08-20T02:14:59.611Z,32.9
2022-08-20T02:16:05.770Z,32.9
2022-08-20T02:17:11.916Z,32.8
2022-08-20T02:18:18.073Z,33.2
2022-08-20T02:19:24.236Z,33.4
2022-08-20T02:20:30.383Z,33.59
2022-08-20T02:21:36.547Z,32.5
2022-08-20T02:22:42.703Z,33.09
2022-08-20T02:23:47.870Z,33.9
2022-08-20T02:24:54.023Z,32.59
2022-08-20T02:26:00.194Z,34
2022-08-20T02:27:06.332Z,34
2022-08-20T02:28:12.495Z,34.4
2022-08-20T02:29:18.646Z,34.2
2022-08-20T02:30:24.802Z,34.09
2022-08-20T02:31:30.953Z,34.5
2022-08-20T02:32:37.117Z,34
2022-08-20T02:33:43.267Z,34.5
2022-08-20T02:34:49.424Z,33.8
2022-08-20T02:35:55.587Z,34.2
2022-08-20T02:37:01.716Z,34.2
2022-08-20T02:38:06.881Z,34.2
2022-08-20T02:39:13.041Z,33.5
2022-08-20T02:40:19.197Z,33.4
2022-08-20T02:41:25.348Z,33.7
2022-08-20T02:42:31.491Z,34.09
2022-08-20T02:43:37.638Z,34.2
2022-08-20T02:44:43.797Z,35.4
2022-08-20T02:45:49.989Z,34.59
2022-08-20T02:46:56.095Z,34.3
2022-08-20T02:48:02.240Z,34.2
2022-08-20T02:49:08.399Z,34.59
2022-08-20T02:50:14.548Z,34.4
2022-08-20T02:51:20.689Z,34.4
2022-08-20T02:52:25.859Z,34.9
2022-08-20T02:53:32.003Z,35
2022-08-20T02:54:38.152Z,34.4
2022-08-20T02:55:44.297Z,34
2022-08-20T02:56:50.451Z,34.4
2022-08-20T02:57:56.613Z,35.2
2022-08-20T02:59:02.762Z,35.09
2022-08-20T03:00:08.921Z,35.3
2022-08-20T03:01:15.068Z,36.09
2022-08-20T03:02:21.217Z,35.2
2022-08-20T03:03:27.383Z,35.4
2022-08-20T03:04:33.523Z,36
2022-08-20T03:05:39.674Z,35.5
2022-08-20T03:06:44.837Z,35.7
2022-08-20T03:07:50.983Z,35.8
2022-08-20T03:08:57.136Z,35.8
2022-08-20T03:10:03.298Z,36.4
2022-08-20T03:11:09.434Z,36.09
2022-08-20T03:12:15.581Z,35.09
2022-08-20T03:13:21.769Z,36.2
2022-08-20T03:14:27.891Z,36
2022-08-20T03:15:34.035Z,35.5
2022-08-20T03:16:40.186Z,36
2022-08-20T03:17:46.366Z,36
2022-08-20T03:18:52.505Z,36.2
2022-08-20T03:19:58.652Z,35.5
2022-08-20T03:21:03.811Z,35.4
2022-08-20T03:22:09.977Z,36.7
2022-08-20T03:23:16.122Z,36.09
2022-08-20T03:24:22.268Z,36.9
2022-08-20T03:25:28.428Z,36.3
2022-08-20T03:26:34.580Z,36.4
2022-08-20T03:27:40.717Z,36.3
2022-08-20T03:28:46.883Z,37
2022-08-20T03:29:53.023Z,36.5
2022-08-20T03:30:59.176Z,36.9
2022-08-20T03:32:05.330Z,36.8
2022-08-20T03:33:11.490Z,37.2
2022-08-20T03:34:17.638Z,37
2022-08-20T03:35:22.814Z,36.2
2022-08-20T03:36:28.961Z,36.8
2022-08-20T03:37:35.119Z,37.8
2022-08-20T03:38:41.274Z,37.7
2022-08-20T03:39:47.430Z,38
2022-08-20T03:40:53.588Z,38.4
2022-08-20T03:41:59.742Z,37.4
2022-08-20T03:43:05.902Z,37.5
2022-08-20T03:44:12.059Z,37.5
2022-08-20T03:45:18.213Z,38
2022-08-20T03:46:24.364Z,38.59
2022-08-20T03:47:30.527Z,38.8
2022-08-20T03:48:36.684Z,38.2
2022-08-20T03:49:41.850Z,39.3
2022-08-20T03:50:47.996Z,38.9
2022-08-20T03:51:54.155Z,38.09
2022-08-20T03:53:00.312Z,38.2
2022-08-20T03:54:06.466Z,38.2
2022-08-20T03:55:12.632Z,37.4
2022-08-20T03:56:18.774Z,37.7
2022-08-20T03:57:24.931Z,38.2
2022-08-20T03:58:31.092Z,37.4
2022-08-20T03:59:37.247Z,38.2
2022-08-20T04:00:43.409Z,38.9
2022-08-20T04:01:49.559Z,37.4
2022-08-20T04:02:55.712Z,38.3
2022-08-20T04:04:00.884Z,37.7
2022-08-20T04:05:07.043Z,38.7
2022-08-20T04:06:13.209Z,38.59
2022-08-20T04:07:19.363Z,37.7
2022-08-20T04:08:25.511Z,39.3
2022-08-20T04:09:31.695Z,37.9
2022-08-20T04:10:37.834Z,37.09
2022-08-20T04:11:43.990Z,38.2
2022-08-20T04:12:50.157Z,37.2
2022-08-20T04:13:56.304Z,37
2022-08-20T04:15:02.454Z,38.3
2022-08-20T04:16:08.626Z,38.5
2022-08-20T04:17:14.772Z,39.8
2022-08-20T04:18:20.574Z,38.9
2022-08-20T04:19:26.123Z,38.4
2022-08-20T04:20:32.260Z,38.3
2022-08-20T04:21:38.406Z,39.5
2022-08-20T04:22:44.561Z,38.9
2022-08-20T04:23:50.709Z,38.3
2022-08-20T04:24:56.860Z,38.5
2022-08-20T04:26:03.010Z,39.9
2022-08-20T04:27:09.171Z,39.3
2022-08-20T04:28:15.333Z,39.4
2022-08-20T04:29:21.472Z,39.3
2022-08-20T04:30:27.628Z,39.2
2022-08-20T04:31:33.781Z,39.09
2022-08-20T04:32:38.947Z,39.3
2022-08-20T04:33:45.101Z,38.59
2022-08-20T04:34:51.241Z,39
2022-08-20T04:35:57.404Z,39.2
2022-08-20T04:37:03.552Z,39.3
2022-08-20T04:38:09.702Z,38.9
2022-08-20T04:39:15.865Z,39.4
2022-08-20T04:40:22.010Z,38.9
2022-08-20T04:41:28.166Z,38.7
2022-08-20T04:42:34.318Z,38.59
2022-08-20T04:43:40.474Z,37.7
2022-08-20T04:44:46.625Z,41.1
2022-08-20T04:45:52.793Z,39.2
2022-08-20T04:46:57.959Z,37.9
2022-08-20T04:48:04.118Z,39.9
2022-08-20T04:49:10.263Z,38.59
2022-08-20T04:50:16.414Z,37.3
2022-08-20T04:51:22.582Z,39.7
2022-08-20T04:52:28.727Z,38.7
2022-08-20T04:53:34.876Z,38.8
2022-08-20T04:54:41.021Z,38.2
2022-08-20T04:55:47.182Z,38.59
2022-08-20T04:56:53.337Z,39
2022-08-20T04:57:59.479Z,38.3
2022-08-20T04:59:05.627Z,38.59
2022-08-20T05:00:11.786Z,38.8
2022-08-20T05:01:16.959Z,38.5
2022-08-20T05:02:23.117Z,37.8
2022-08-20T05:03:29.284Z,37.59
2022-08-20T05:04:35.419Z,37.59
2022-08-20T05:05:41.573Z,37.4
2022-08-20T05:06:47.723Z,38.7
2022-08-20T05:07:53.876Z,37.09
2022-08-20T05:09:00.034Z,40.2
2022-08-20T05:10:06.190Z,37.4
2022-08-20T05:11:12.332Z,37.9
2022-08-20T05:12:18.484Z,38.09
2022-08-20T05:13:24.643Z,38.3
2022-08-20T05:14:30.776Z,37.8
2022-08-20T05:15:35.990Z,38
2022-08-20T05:16:42.107Z,37.5
2022-08-20T05:17:48.252Z,38.5
2022-08-20T05:18:54.411Z,39
2022-08-20T05:20:00.552Z,38
2022-08-20T05:21:06.691Z,37.09
2022-08-20T05:22:12.853Z,37.8
2022-08-20T05:23:19.001Z,36.59
2022-08-20T05:24:25.153Z,38.4
2022-08-20T05:25:31.295Z,37
2022-08-20T05:26:37.441Z,37.2
2022-08-20T05:27:43.589Z,36.3
2022-08-20T05:28:49.744Z,36
2022-08-20T05:29:54.911Z,36.5
2022-08-20T05:31:01.060Z,35.7
2022-08-20T05:32:07.227Z,36.7
2022-08-20T05:33:13.381Z,36.3
2022-08-20T05:34:19.537Z,36.09
2022-08-20T05:35:25.682Z,35.3
2022-08-20T05:36:31.834Z,36.09
2022-08-20T05:37:37.979Z,35.9
2022-08-20T05:38:44.123Z,36.2
2022-08-20T05:39:50.267Z,35.5
2022-08-20T05:40:56.413Z,35.5
2022-08-20T05:42:02.567Z,34.5
2022-08-20T05:43:08.717Z,34.3
2022-08-20T05:44:13.868Z,34.7
2022-08-20T05:45:20.025Z,34.7
2022-08-20T05:46:26.172Z,35.09
2022-08-20T05:47:32.307Z,34.09
2022-08-20T05:48:38.442Z,34.9
2022-08-20T05:49:44.597Z,35.5
2022-08-20T05:50:49.743Z,34.8
2022-08-20T05:51:55.882Z,34.8
2022-08-20T05:53:02.026Z,33.9
2022-08-20T05:54:08.163Z,33.59
2022-08-20T05:55:14.291Z,34.09
2022-08-20T05:56:20.443Z,33.59
2022-08-20T05:57:26.568Z,34.59
2022-08-20T05:58:32.714Z,33.8
2022-08-20T05:59:38.848Z,33.8
2022-08-20T06:00:44.986Z,35
2022-08-20T06:01:51.126Z,34
2022-08-20T06:02:57.269Z,32.9
2022-08-20T06:04:03.395Z,34.09
2022-08-20T06:05:09.530Z,33.8
2022-08-20T06:06:14.686Z,33.7
2022-08-20T06:07:20.833Z,34.2
2022-08-20T06:08:26.948Z,33.8
2022-08-20T06:09:33.082Z,33.5
2022-08-20T06:10:39.215Z,32.9
2022-08-20T06:11:45.347Z,33.3
2022-08-20T06:12:51.478Z,33.3
2022-08-20T06:13:57.612Z,33.5
2022-08-20T06:15:03.758Z,34.2
2022-08-20T06:16:09.886Z,34.2
2022-08-20T06:17:16.026Z,33
2022-08-20T06:18:22.154Z,32.8
2022-08-20T06:19:28.303Z,33.09
2022-08-20T06:20:33.430Z,33.09
2022-08-20T06:21:39.560Z,33
2022-08-20T06:22:45.681Z,32.8
2022-08-20T06:23:51.804Z,32.7
2022-08-20T06:24:57.929Z,33
2022-08-20T06:26:04.055Z,32.4
2022-08-20T06:27:10.185Z,32.2
2022-08-20T06:28:16.319Z,32.8
2022-08-20T06:29:22.429Z,32.4
2022-08-20T06:30:28.559Z,32.7
2022-08-20T06:31:34.688Z,31.3
2022-08-20T06:32:40.818Z,33
2022-08-20T06:33:46.936Z,33.4
2022-08-20T06:34:53.059Z,32.59
2022-08-20T06:35:58.201Z,31.1
2022-08-20T06:37:04.334Z,33
2022-08-20T06:38:10.459Z,32.2
2022-08-20T06:39:16.584Z,33
2022-08-20T06:40:22.703Z,32.09
2022-08-20T06:41:28.836Z,31.9
2022-08-20T06:42:34.961Z,33
2022-08-20T06:43:41.092Z,33.5
2022-08-20T06:44:47.225Z,32.4
2022-08-20T06:45:53.354Z,32.4
2022-08-20T06:46:59.474Z,32.7
2022-08-20T06:48:05.607Z,33
2022-08-20T06:49:11.743Z,32.5
2022-08-20T06:50:17.868Z,32.59
2022-08-20T06:51:23.996Z,32.8
2022-08-20T06:52:30.107Z,32.4
2022-08-20T06:53:36.240Z,32.59
2022-08-20T06:54:42.359Z,32.5
2022-08-20T06:55:48.484Z,32
2022-08-20T06:56:54.611Z,33.2
2022-08-20T06:58:00.740Z,32.9
2022-08-20T06:59:06.858Z,32.8
2022-08-20T07:00:12.970Z,32.2
2022-08-20T07:01:19.104Z,32.59
2022-08-20T07:02:25.229Z,32.2
2022-08-20T07:03:31.352Z,32.5
2022-08-20T07:04:37.473Z,32.5
2022-08-20T07:05:43.598Z,33.3
2022-08-20T07:06:49.729Z,33
2022-08-20T07:07:55.864Z,32.9
2022-08-20T07:09:01.986Z,33.59
2022-08-20T07:10:08.101Z,32.9
2022-08-20T07:11:14.233Z,33
2022-08-20T07:12:20.353Z,33.4
2022-08-20T07:13:26.475Z,32.9
2022-08-20T07:14:32.592Z,33.7
2022-08-20T07:15:38.718Z,32.59
2022-08-20T07:16:44.929Z,32.09
2022-08-20T07:17:50.136Z,33.3
2022-08-20T07:18:56.301Z,32.8
2022-08-20T07:20:02.390Z,33.2
2022-08-20T07:21:08.502Z,33.7
2022-08-20T07:22:14.629Z,33.09
2022-08-20T07:23:20.750Z,32
2022-08-20T07:24:26.879Z,32.2
2022-08-20T07:25:33.013Z,33
2022-08-20T07:26:39.125Z,33.3
2022-08-20T07:27:45.256Z,32.4
2022-08-20T07:28:51.381Z,32.4
2022-08-20T07:29:57.503Z,32.2
2022-08-20T07:31:02.650Z,31.3
2022-08-20T07:32:08.775Z,31.7
2022-08-20T07:33:14.905Z,30.9
2022-08-20T07:34:21.012Z,31.4
2022-08-20T07:35:27.134Z,30.7
2022-08-20T07:36:33.259Z,29.9
2022-08-20T07:37:39.387Z,30.9
2022-08-20T07:38:45.503Z,31.1
2022-08-20T07:39:51.629Z,31.7
2022-08-20T07:40:57.747Z,29.7
2022-08-20T07:42:03.871Z,30.4
2022-08-20T07:43:09.995Z,30
2022-08-20T07:44:16.127Z,29.1
2022-08-20T07:45:22.246Z,29
2022-08-20T07:46:28.419Z,30
2022-08-20T07:47:34.498Z,29.9
2022-08-20T07:48:40.632Z,29.7
2022-08-20T07:49:46.741Z,29.2
2022-08-20T07:50:52.867Z,29.5
2022-08-20T07:51:58.998Z,30.3
2022-08-20T07:53:05.110Z,30.8
2022-08-20T07:54:11.250Z,31.2
2022-08-20T07:55:16.429Z,30.8
2022-08-20T07:56:22.515Z,30.4
2022-08-20T07:57:28.643Z,31.2
2022-08-20T07:58:34.751Z,28.8
2022-08-20T07:59:40.887Z,29.6
2022-08-20T08:00:46.994Z,29.1
2022-08-20T08:01:53.121Z,29.5
2022-08-20T08:02:59.244Z,29
2022-08-20T08:04:05.365Z,28.6
2022-08-20T08:05:11.499Z,27.2
2022-08-20T08:06:17.603Z,28.6
2022-08-20T08:07:23.732Z,28.2
2022-08-20T08:08:29.867Z,27.3
2022-08-20T08:09:35.969Z,28
2022-08-20T08:10:42.095Z,27.1
2022-08-20T08:11:48.204Z,26
2022-08-20T08:12:54.330Z,26.5
2022-08-20T08:14:00.435Z,26.7
2022-08-20T08:15:06.543Z,26.4
2022-08-20T08:16:12.661Z,25.9
2022-08-20T08:17:18.780Z,26.1
2022-08-20T08:18:24.912Z,24.4
2022-08-20T08:19:31.011Z,24.4
2022-08-20T08:20:37.119Z,25.4
2022-08-20T08:21:43.235Z,25.5
2022-08-20T08:22:49.430Z,24.1
2022-08-20T08:23:54.608Z,23.1
2022-08-20T08:25:00.718Z,23.5
2022-08-20T08:26:06.830Z,24.2
2022-08-20T08:27:12.946Z,23.7
2022-08-20T08:28:19.050Z,23.6
2022-08-20T08:29:25.157Z,22.7
2022-08-20T08:30:31.252Z,24
2022-08-20T08:31:37.363Z,23
2022-08-20T08:32:43.478Z,22.2
2022-08-20T08:33:49.572Z,22.1
2022-08-20T08:34:55.673Z,23.5
2022-08-20T08:36:01.769Z,21.9
2022-08-20T08:37:07.872Z,24.4
2022-08-20T08:38:13.961Z,21.8
2022-08-20T08:39:20.059Z,21.6
2022-08-20T08:40:26.167Z,22.8
2022-08-20T08:41:32.259Z,22.7
2022-08-20T08:42:38.364Z,23
2022-08-20T08:43:44.462Z,22.3
2022-08-20T08:44:50.562Z,21.9
2022-08-20T08:45:56.658Z,22.9
2022-08-20T08:47:02.767Z,22.9
2022-08-20T08:48:08.866Z,22.9
2022-08-20T08:49:14.954Z,22.9
2022-08-20T08:50:21.083Z,22.5
2022-08-20T08:51:27.230Z,22.5
2022-08-20T08:52:33.417Z,22.9
2022-08-20T08:53:38.593Z,22.6
2022-08-20T08:54:44.696Z,22.7
2022-08-20T08:55:50.794Z,22.7
2022-08-20T08:56:56.885Z,21.2
2022-08-20T08:58:02.993Z,21.3
2022-08-20T08:59:09.089Z,21.6
2022-08-20T09:00:15.201Z,21.5
2022-08-20T09:01:21.269Z,21.7
2022-08-20T09:02:27.366Z,20.9
2022-08-20T09:03:33.471Z,21.4
2022-08-20T09:04:39.553Z,21.4
2022-08-20T09:05:45.653Z,21.4
2022-08-20T09:06:51.752Z,22
2022-08-20T09:07:57.833Z,21.4
2022-08-20T09:09:03.926Z,21.4
2022-08-20T09:10:10.023Z,21.3
2022-08-20T09:11:16.131Z,23.1
2022-08-20T09:12:22.230Z,21.6
2022-08-20T09:13:28.329Z,22.1
2022-08-20T09:14:34.432Z,21.4
2022-08-20T09:15:40.532Z,21.6
2022-08-20T09:16:46.640Z,21.1
2022-08-20T09:17:52.727Z,22.3
2022-08-20T09:18:58.826Z,22.1
2022-08-20T09:20:04.925Z,22.4
2022-08-20T09:21:11.111Z,22.1
2022-08-20T09:22:17.281Z,22.6
2022-08-20T09:23:23.458Z,22.4
2022-08-20T09:24:28.630Z,22.6
2022-08-20T09:25:34.743Z,22.6
2022-08-20T09:26:40.838Z,22.8
2022-08-20T09:27:46.935Z,22.9
2022-08-20T09:28:53.041Z,22.2
2022-08-20T09:29:59.144Z,24.2
2022-08-20T09:31:05.244Z,23.3
2022-08-20T09:32:11.338Z,24.1
2022-08-20T09:33:17.452Z,22.9
2022-08-20T09:34:23.545Z,23.7
2022-08-20T09:35:29.671Z,22.5
2022-08-20T09:36:35.750Z,23.9
2022-08-20T09:37:41.855Z,23.1
2022-08-20T09:38:47.981Z,23.7
2022-08-20T09:39:54.068Z,24
2022-08-20T09:41:00.189Z,23.7
2022-08-20T09:42:06.284Z,23.6
2022-08-20T09:43:12.366Z,23.7
2022-08-20T09:44:18.481Z,23.7
2022-08-20T09:45:24.584Z,23.6
2022-08-20T09:46:30.681Z,22.9
2022-08-20T09:47:36.799Z,23.1
2022-08-20T09:48:42.920Z,23.5
2022-08-20T09:49:49.008Z,23.7
2022-08-20T09:50:55.103Z,23.6
2022-08-20T09:52:01.302Z,23.5
2022-08-20T09:53:06.476Z,24.4
2022-08-20T09:54:12.589Z,23.5
2022-08-20T09:55:18.693Z,23.6
2022-08-20T09:56:24.811Z,24
2022-08-20T09:57:30.903Z,24.6
2022-08-20T09:58:37.293Z,23.5
2022-08-20T09:59:43.119Z,23.3
2022-08-20T10:00:49.230Z,23.4
2022-08-20T10:01:55.344Z,23.4
2022-08-20T10:03:01.458Z,24.1
2022-08-20T10:04:07.571Z,23.1
2022-08-20T10:05:13.685Z,24
2022-08-20T10:06:19.830Z,23.3
2022-08-20T10:07:25.894Z,23.6
2022-08-20T10:08:32.021Z,26.4
2022-08-20T10:09:38.126Z,24.1
2022-08-20T10:10:44.231Z,23.4
2022-08-20T10:11:50.338Z,32.3
2022-08-20T10:12:56.454Z,24.2
2022-08-20T10:14:02.566Z,22.5
2022-08-20T10:15:08.693Z,23.4
2022-08-20T10:16:14.785Z,45.4
2022-08-20T10:17:20.886Z,27.3
2022-08-20T10:18:27.007Z,26.9
2022-08-20T10:19:33.116Z,22.8
2022-08-20T10:20:39.313Z,22.4
2022-08-20T10:21:45.506Z,25.7
2022-08-20T10:22:51.685Z,22.6
2022-08-20T10:23:57.861Z,22.5
2022-08-20T10:25:04.073Z,22.5
2022-08-20T10:26:09.261Z,22.3
2022-08-20T10:27:15.374Z,22.5
2022-08-20T10:28:21.490Z,22.3
2022-08-20T10:29:27.600Z,22.8
2022-08-20T10:30:33.718Z,22.5
2022-08-20T10:31:39.825Z,24.2
2022-08-20T10:32:45.935Z,22.5
2022-08-20T10:33:52.044Z,22.4
2022-08-20T10:34:58.156Z,22.9
2022-08-20T10:36:04.258Z,22.7
2022-08-20T10:37:10.378Z,23.5
2022-08-20T10:38:16.478Z,23.5
2022-08-20T10:39:22.595Z,47.2
2022-08-20T10:40:28.708Z,38.3
2022-08-20T10:41:34.827Z,22.6
2022-08-20T10:42:40.933Z,23
2022-08-20T10:43:47.048Z,21.9
2022-08-20T10:44:53.163Z,23.3
2022-08-20T10:45:59.291Z,25.8
2022-08-20T10:47:05.396Z,22.3
2022-08-20T10:48:11.517Z,21.5
2022-08-20T10:49:17.611Z,22.6
2022-08-20T10:50:23.721Z,22.2
2022-08-20T10:51:29.835Z,20.9
2022-08-20T10:52:35.961Z,22.2
2022-08-20T10:53:42.154Z,23
2022-08-20T10:54:47.338Z,21.8
2022-08-20T10:55:53.469Z,21.9
2022-08-20T10:56:59.567Z,21.7
2022-08-20T10:58:05.679Z,22.1
2022-08-20T10:59:11.781Z,22.2
2022-08-20T11:00:17.893Z,21
2022-08-20T11:01:23.995Z,20.8
2022-08-20T11:02:30.107Z,20.1
2022-08-20T11:03:36.220Z,19.9
2022-08-20T11:04:42.326Z,19.5
2022-08-20T11:05:48.424Z,19.1
2022-08-20T11:06:54.532Z,18.79
2022-08-20T11:08:00.643Z,18.1
2022-08-20T11:09:06.755Z,18.2
2022-08-20T11:10:12.871Z,17.79
2022-08-20T11:11:18.979Z,17.6
2022-08-20T11:12:25.080Z,18.5
2022-08-20T11:13:31.188Z,16.9
2022-08-20T11:14:37.299Z,15.9
2022-08-20T11:15:43.418Z,15.5
2022-08-20T11:16:49.512Z,14.1
2022-08-20T11:17:55.614Z,13.4
2022-08-20T11:19:01.722Z,13.8
2022-08-20T11:20:07.830Z,13.1
2022-08-20T11:21:13.940Z,13.1
2022-08-20T11:22:20.117Z,13.2
2022-08-20T11:23:25.305Z,11.9
2022-08-20T11:24:31.408Z,12.3
2022-08-20T11:25:37.541Z,12.5
2022-08-20T11:26:43.619Z,11.8
2022-08-20T11:27:49.725Z,12
2022-08-20T11:28:55.825Z,12
2022-08-20T11:30:01.931Z,11.5
2022-08-20T11:31:08.046Z,11.9
2022-08-20T11:32:14.141Z,11.5
2022-08-20T11:33:20.249Z,11.8
2022-08-20T11:34:26.359Z,11.4
2022-08-20T11:35:32.452Z,11.2
2022-08-20T11:36:38.560Z,12.1
2022-08-20T11:37:44.658Z,11.9
2022-08-20T11:38:50.775Z,11.9
2022-08-20T11:39:56.880Z,12.3
2022-08-20T11:41:02.973Z,12.4
2022-08-20T11:42:09.082Z,13.9
2022-08-20T11:43:15.190Z,13.7
2022-08-20T11:44:21.287Z,11.5
2022-08-20T11:45:27.390Z,11.8
2022-08-20T11:46:33.488Z,12
2022-08-20T11:47:39.589Z,11.4
2022-08-20T11:48:45.677Z,11.4
2022-08-20T11:49:51.777Z,12
2022-08-20T11:50:57.976Z,11.2
2022-08-20T11:52:03.134Z,11
2022-08-20T11:53:09.222Z,11.2
2022-08-20T11:54:15.321Z,10.7
2022-08-20T11:55:21.417Z,11.2
2022-08-20T11:56:27.491Z,11.2
2022-08-20T11:57:33.593Z,11.3
2022-08-20T11:58:39.677Z,10.8
2022-08-20T11:59:45.769Z,10.7
2022-08-20T12:00:51.865Z,11
2022-08-20T12:01:57.946Z,10.8
2022-08-20T12:03:04.043Z,10.8
2022-08-20T12:04:10.128Z,10.9
2022-08-20T12:05:16.266Z,11
2022-08-20T12:06:22.308Z,10.9
2022-08-20T12:07:28.394Z,11.7
2022-08-20T12:08:34.477Z,11.5
2022-08-20T12:09:40.575Z,11
2022-08-20T12:10:46.654Z,11.6
2022-08-20T12:11:52.752Z,11.8
2022-08-20T12:12:58.837Z,11.1
2022-08-20T12:14:04.927Z,11.1
2022-08-20T12:15:11.012Z,11.6
2022-08-20T12:16:17.100Z,11.9
2022-08-20T12:17:23.193Z,11.1
2022-08-20T12:18:29.290Z,10.7
2022-08-20T12:19:35.454Z,11.7
2022-08-20T12:20:41.607Z,11
2022-08-20T12:21:47.774Z,11.1
2022-08-20T12:22:53.931Z,11.8
2022-08-20T12:24:00.091Z,10.8
2022-08-20T12:25:06.245Z,11
2022-08-20T12:26:12.401Z,10.4
2022-08-20T12:27:18.561Z,10.6
2022-08-20T12:28:24.736Z,11.2
2022-08-20T12:29:30.872Z,11
2022-08-20T12:30:37.037Z,11.2
2022-08-20T12:31:43.208Z,11.6
2022-08-20T12:32:49.344Z,10.9
2022-08-20T12:33:55.619Z,10.9
2022-08-20T12:35:00.856Z,10.8
2022-08-20T12:36:06.940Z,10.5
2022-08-20T12:37:13.022Z,12.1
2022-08-20T12:38:19.102Z,11.5
2022-08-20T12:39:25.187Z,11
2022-08-20T12:40:31.271Z,10.7
2022-08-20T12:41:37.347Z,11.5
2022-08-20T12:42:43.426Z,11.6
2022-08-20T12:43:49.511Z,11.7
2022-08-20T12:44:55.595Z,11.4
2022-08-20T12:46:01.682Z,10.4
2022-08-20T12:47:07.745Z,10.9
2022-08-20T12:48:13.844Z,11.3
2022-08-20T12:49:19.910Z,11.7
2022-08-20T12:50:25.999Z,11.1
2022-08-20T12:51:32.081Z,11.3
2022-08-20T12:52:38.156Z,10.7
2022-08-20T12:53:44.234Z,10.5
2022-08-20T12:54:50.320Z,11.5
2022-08-20T12:55:56.402Z,20.7
2022-08-20T12:57:02.483Z,12.3
2022-08-20T12:58:08.561Z,11.5
2022-08-20T12:59:14.645Z,11.7
2022-08-20T13:00:20.719Z,11.1
2022-08-20T13:01:26.805Z,11.4
2022-08-20T13:02:32.963Z,10.4
2022-08-20T13:03:39.127Z,10.1
2022-08-20T13:04:45.272Z,9.8
2022-08-20T13:05:51.425Z,10.2
2022-08-20T13:06:57.579Z,10.2
2022-08-20T13:08:03.735Z,9.6
2022-08-20T13:09:09.891Z,11.5
2022-08-20T13:10:16.032Z,10.1
2022-08-20T13:11:22.176Z,9.89
2022-08-20T13:12:28.339Z,10.2
2022-08-20T13:13:34.486Z,10.9
2022-08-20T13:14:40.632Z,11.1
2022-08-20T13:15:46.790Z,11
2022-08-20T13:16:53.068Z,11
2022-08-20T13:17:58.293Z,10.7
2022-08-20T13:19:04.366Z,10.2
2022-08-20T13:20:10.435Z,10.5
2022-08-20T13:21:16.503Z,9.8
2022-08-20T13:22:22.570Z,9.7
2022-08-20T13:23:28.647Z,9.5
2022-08-20T13:24:34.719Z,10.2
2022-08-20T13:25:40.796Z,9.3
2022-08-20T13:26:46.868Z,10
2022-08-20T13:27:52.938Z,9.8
2022-08-20T13:28:59.016Z,9.6
2022-08-20T13:30:05.097Z,9.6
2022-08-20T13:31:11.173Z,9.8
2022-08-20T13:32:17.253Z,9.89
2022-08-20T13:33:23.338Z,9.6
2022-08-20T13:34:29.406Z,9.7
2022-08-20T13:35:35.485Z,9.89
2022-08-20T13:36:41.567Z,10
2022-08-20T13:37:47.643Z,10.4
2022-08-20T13:38:53.715Z,10.3
2022-08-20T13:39:59.788Z,9.7
2022-08-20T13:41:05.878Z,10.3
2022-08-20T13:42:11.945Z,9.89
2022-08-20T13:43:18.016Z,9.7
2022-08-20T13:44:24.110Z,9.8
2022-08-20T13:45:30.267Z,9.7
2022-08-20T13:46:36.433Z,9.89
2022-08-20T13:47:42.592Z,10.4
2022-08-20T13:48:48.758Z,9.5
2022-08-20T13:49:54.911Z,9.7
2022-08-20T13:51:01.065Z,9.3
2022-08-20T13:52:07.234Z,9.6
2022-08-20T13:53:13.381Z,9.89
2022-08-20T13:54:19.545Z,9.6
2022-08-20T13:55:25.695Z,9.5
2022-08-20T13:56:31.851Z,9.8
2022-08-20T13:57:38.008Z,9.7
2022-08-20T13:58:44.153Z,10.5
2022-08-20T13:59:50.439Z,9.7
2022-08-20T14:00:55.680Z,10.3
2022-08-20T14:02:01.740Z,9.89
2022-08-20T14:03:07.825Z,9.3
2022-08-20T14:04:13.887Z,10.5
2022-08-20T14:05:19.976Z,9.3
2022-08-20T14:06:26.058Z,9.89
2022-08-20T14:07:32.127Z,9.8
2022-08-20T14:08:38.210Z,10.1
2022-08-20T14:09:44.292Z,9.7
2022-08-20T14:10:50.370Z,10.1
2022-08-20T14:11:56.459Z,10.1
2022-08-20T14:13:02.541Z,10
2022-08-20T14:14:08.619Z,9.8
2022-08-20T14:15:14.709Z,9.5
2022-08-20T14:16:20.784Z,9.8
2022-08-20T14:17:26.873Z,10.2
2022-08-20T14:18:32.955Z,9.8
2022-08-20T14:19:39.042Z,10
2022-08-20T14:20:45.123Z,10
2022-08-20T14:21:51.214Z,9.5
2022-08-20T14:22:57.288Z,10.3
2022-08-20T14:24:03.371Z,9.5
2022-08-20T14:25:09.445Z,9.89
2022-08-20T14:26:15.530Z,10.4
2022-08-20T14:27:21.613Z,10
2022-08-20T14:28:27.764Z,10.8
2022-08-20T14:29:33.923Z,10.2
2022-08-20T14:30:40.073Z,10
2022-08-20T14:31:46.233Z,9.5
2022-08-20T14:32:52.393Z,10.4
2022-08-20T14:33:58.556Z,10
2022-08-20T14:35:04.710Z,10.1
2022-08-20T14:36:10.860Z,9.8
2022-08-20T14:37:17.028Z,9.2
2022-08-20T14:38:23.192Z,9.8
2022-08-20T14:39:29.351Z,9.7
2022-08-20T14:40:35.521Z,9.3
2022-08-20T14:41:41.682Z,9.6
2022-08-20T14:42:47.974Z,10
2022-08-20T14:43:54.242Z,9.89
2022-08-20T14:44:59.479Z,10.1